Time;durP1;ratioP1;P1;durP2;ratioP2;P2;SDS_P1;SDS_P2;PMS_P1;PMS_P2;Temp;Humidity;BMP_temperature;BMP_pressure;BME280_temperature;BME280_humidity;BME280_pressure;Samples;Min_cycle;Max_cycle;Signal;HPM_P1;HPM_P2
2022/09/26 00:00:22;;;;;;;30.50;27.20;;;13.10;99.90;;;;;;6284210;22;20189;-86
2022/09/26 00:02:51;;;;;;;30.70;26.13;;;13.00;99.90;;;;;;6284236;22;20571;-85
2022/09/26 00:05:27;;;;;;;32.22;25.15;;;12.90;99.90;;;;;;6282794;22;20174;-86
2022/09/26 00:07:56;;;;;;;34.38;26.20;;;12.90;99.90;;;;;;6286071;22;20186;-87
2022/09/26 00:10:44;;;;;;;32.45;28.38;;;12.90;99.90;;;;;;6296909;22;20394;-85
2022/09/26 00:13:20;;;;;;;34.55;27.85;;;12.90;99.90;;;;;;6302286;22;20189;-86
2022/09/26 00:15:47;;;;;;;33.83;26.70;;;12.80;99.90;;;;;;6295685;22;20174;-87
2022/09/26 00:18:14;;;;;;;33.47;28.45;;;12.80;99.90;;;;;;6285530;22;20373;-88
2022/09/26 00:20:41;;;;;;;28.58;25.48;;;12.70;99.90;;;;;;6286199;22;20178;-91
2022/09/26 00:23:10;;;;;;;36.78;25.88;;;12.70;99.90;;;;;;6283770;22;20224;-90
2022/09/26 00:25:47;;;;;;;29.38;26.05;;;12.70;99.90;;;;;;6279604;22;20516;-88
2022/09/26 00:28:16;;;;;;;33.78;27.17;;;12.70;99.90;;;;;;6260495;22;20169;-88
2022/09/26 00:30:44;;;;;;;38.65;28.80;;;12.60;99.90;;;;;;6285899;22;20213;-89
2022/09/26 00:33:14;;;;;;;31.67;28.23;;;12.60;99.90;;;;;;6290798;22;20217;-91
2022/09/26 00:35:51;;;;;;;30.70;27.13;;;12.50;99.90;;;;;;6286393;22;20190;-90
2022/09/26 00:38:20;;;;;;;35.88;28.23;;;12.50;99.90;;;;;;6284690;22;20158;-89
2022/09/26 00:40:51;;;;;;;28.75;25.65;;;12.50;99.90;;;;;;6284281;22;20208;-89
2022/09/26 00:43:38;;;;;;;33.97;27.25;;;12.50;99.90;;;;;;6284458;22;20455;-88
2022/09/26 00:46:36;;;;;;;36.60;29.77;;;12.40;99.90;;;;;;6284389;22;20182;-89
2022/09/26 00:49:26;;;;;;;37.95;28.98;;;12.20;99.90;;;;;;6284697;22;20162;-90
2022/09/26 00:52:09;;;;;;;31.73;27.52;;;12.30;99.90;;;;;;6283109;22;20182;-89
2022/09/26 00:54:40;;;;;;;35.53;29.70;;;12.30;99.90;;;;;;6283111;22;20186;-91
2022/09/26 00:57:14;;;;;;;32.70;27.40;;;12.30;99.90;;;;;;6284778;22;20173;-89
2022/09/26 00:59:47;;;;;;;36.95;27.48;;;12.30;99.90;;;;;;6283866;22;20516;-90
2022/09/26 01:02:17;;;;;;;32.55;28.25;;;12.30;99.90;;;;;;6289660;22;20168;-90
2022/09/26 01:04:46;;;;;;;34.53;29.33;;;12.20;99.90;;;;;;6258789;22;20209;-88
2022/09/26 01:07:18;;;;;;;33.13;28.58;;;12.30;99.90;;;;;;6281290;22;20489;-88
2022/09/26 01:09:47;;;;;;;31.02;26.88;;;12.20;99.90;;;;;;6256338;22;20182;-88
2022/09/26 01:12:15;;;;;;;33.08;27.73;;;12.10;99.90;;;;;;6283715;22;20185;-89
2022/09/26 01:14:58;;;;;;;36.05;28.25;;;12.10;99.90;;;;;;6283308;22;20178;-90
2022/09/26 01:17:26;;;;;;;33.88;27.40;;;12.10;99.90;;;;;;6257535;22;20214;-90
2022/09/26 01:20:17;;;;;;;30.42;26.88;;;12.10;99.90;;;;;;6283221;22;20388;-90
2022/09/26 01:23:17;;;;;;;30.10;25.27;;;12.00;99.90;;;;;;6307294;22;20212;-91
2022/09/26 01:26:10;;;;;;;41.13;30.33;;;12.00;99.90;;;;;;6281289;22;20180;-90
2022/09/26 01:29:17;;;;;;;33.00;28.42;;;12.00;99.90;;;;;;6283979;22;20245;-91
2022/09/26 01:35:06;;;;;;;35.55;29.85;;;11.80;99.90;;;;;;6302964;22;20158;-88
2022/09/26 01:38:19;;;;;;;35.63;28.98;;;11.80;99.90;;;;;;6295460;22;20212;-91
2022/09/26 01:41:05;;;;;;;36.58;28.65;;;11.70;99.90;;;;;;6312468;22;20690;-89
2022/09/26 01:44:00;;;;;;;32.28;28.48;;;11.60;99.90;;;;;;6284964;22;20216;-89
2022/09/26 01:46:33;;;;;;;35.55;29.67;;;11.60;99.90;;;;;;6286788;22;20174;-87
2022/09/26 01:49:29;;;;;;;36.47;31.80;;;11.70;99.90;;;;;;6294600;22;20179;-90
2022/09/26 01:52:38;;;;;;;35.95;28.77;;;11.60;99.90;;;;;;6304797;22;20237;-88
2022/09/26 01:55:17;;;;;;;35.83;32.13;;;11.60;99.90;;;;;;6302496;22;20198;-88
2022/09/26 01:58:06;;;;;;;38.30;32.40;;;11.70;99.90;;;;;;6295569;22;20216;-89
2022/09/26 02:00:36;;;;;;;36.38;31.80;;;11.70;99.90;;;;;;6283449;22;20185;-89
2022/09/26 02:03:08;;;;;;;36.75;31.10;;;11.60;99.90;;;;;;6284263;22;20206;-89
2022/09/26 02:05:50;;;;;;;36.15;28.85;;;11.70;99.90;;;;;;6283901;22;20640;-88
2022/09/26 02:08:40;;;;;;;38.08;32.28;;;11.60;99.90;;;;;;6284087;22;20174;-87
2022/09/26 02:11:17;;;;;;;39.10;32.55;;;11.60;99.90;;;;;;6284933;22;20480;-88
2022/09/26 02:14:23;;;;;;;33.30;29.67;;;11.60;99.90;;;;;;6290750;22;20186;-91
2022/09/26 02:16:57;;;;;;;34.15;30.23;;;11.70;99.90;;;;;;6286578;22;20355;-89
2022/09/26 02:19:28;;;;;;;40.50;32.70;;;11.80;99.90;;;;;;6284912;22;20167;-89
2022/09/26 02:21:57;;;;;;;34.38;29.88;;;11.80;99.90;;;;;;6283294;22;20222;-88
2022/09/26 02:24:28;;;;;;;41.00;31.02;;;11.80;99.90;;;;;;6284536;22;20228;-90
2022/09/26 02:26:55;;;;;;;38.75;29.52;;;11.90;99.90;;;;;;6284252;22;20185;-87
2022/09/26 02:29:24;;;;;;;39.83;31.90;;;11.90;99.90;;;;;;6284718;22;20405;-89
2022/09/26 02:32:04;;;;;;;35.45;30.15;;;11.80;99.90;;;;;;6282795;22;20548;-86
2022/09/26 02:34:32;;;;;;;33.97;29.48;;;11.80;99.90;;;;;;6284030;22;20227;-87
2022/09/26 02:37:00;;;;;;;35.33;28.45;;;11.90;99.90;;;;;;6282715;22;20547;-86
2022/09/26 02:39:32;;;;;;;33.50;27.60;;;11.90;99.90;;;;;;6284426;22;20174;-89
2022/09/26 02:42:12;;;;;;;30.48;27.27;;;11.90;99.90;;;;;;6288777;22;20408;-89
2022/09/26 02:45:04;;;;;;;35.53;30.90;;;11.70;99.90;;;;;;6286996;22;20221;-88
2022/09/26 02:47:55;;;;;;;33.28;27.58;;;11.80;99.90;;;;;;6286645;22;20242;-89
2022/09/26 02:51:06;;;;;;;33.95;28.92;;;11.80;99.90;;;;;;6291789;22;20193;-89
2022/09/26 02:54:18;;;;;;;37.25;31.20;;;11.70;99.90;;;;;;6287707;22;20215;-91
2022/09/26 02:57:09;;;;;;;32.95;29.55;;;11.70;99.90;;;;;;6235751;22;20196;-91
2022/09/26 02:59:59;;;;;;;33.08;27.83;;;11.60;99.90;;;;;;6284505;22;20243;-92
2022/09/26 03:02:41;;;;;;;29.83;26.15;;;11.50;99.90;;;;;;6286471;22;20188;-90
2022/09/26 03:05:14;;;;;;;31.88;28.23;;;11.40;99.90;;;;;;6311512;22;20193;-90
2022/09/26 03:08:10;;;;;;;32.28;27.73;;;11.40;99.90;;;;;;6285082;22;20174;-89
2022/09/26 03:10:40;;;;;;;33.90;30.15;;;11.30;99.90;;;;;;6284845;22;20177;-90
2022/09/26 03:13:14;;;;;;;36.17;30.08;;;11.20;99.90;;;;;;6282876;22;20241;-91
2022/09/26 03:15:51;;;;;;;33.75;30.10;;;10.90;99.90;;;;;;6285715;22;20233;-90
2022/09/26 03:18:27;;;;;;;42.28;31.83;;;10.90;99.90;;;;;;6287007;22;20187;-91
2022/09/26 03:20:55;;;;;;;33.92;29.25;;;10.90;99.90;;;;;;6261412;22;20181;-91
2022/09/26 03:23:25;;;;;;;39.03;31.73;;;10.90;99.90;;;;;;6287244;22;20177;-91
2022/09/26 03:26:12;;;;;;;35.58;31.35;;;10.90;99.90;;;;;;6289900;22;20172;-86
2022/09/26 03:28:42;;;;;;;36.53;31.08;;;10.80;99.90;;;;;;6284148;22;20184;-88
2022/09/26 03:31:10;;;;;;;35.80;30.83;;;10.70;99.90;;;;;;6285810;22;20185;-92
2022/09/26 03:33:38;;;;;;;40.00;33.53;;;10.70;99.90;;;;;;6297404;22;20212;-93
2022/09/26 03:36:08;;;;;;;34.85;29.25;;;10.60;99.90;;;;;;6302405;22;20169;-92
2022/09/26 03:38:41;;;;;;;37.13;31.23;;;10.70;99.90;;;;;;6294075;22;20186;-88
2022/09/26 03:41:09;;;;;;;40.90;30.92;;;10.80;99.90;;;;;;6286005;22;20177;-87
2022/09/26 03:43:36;;;;;;;36.05;28.63;;;10.90;99.90;;;;;;6284674;22;20211;-85
2022/09/26 03:46:05;;;;;;;34.63;30.92;;;11.00;99.90;;;;;;6257703;22;20193;-86
2022/09/26 03:48:34;;;;;;;33.90;30.38;;;11.00;99.90;;;;;;6282153;22;20204;-87
2022/09/26 03:51:12;;;;;;;36.78;29.38;;;11.00;99.90;;;;;;6283359;22;20209;-87
2022/09/26 03:53:42;;;;;;;36.63;30.70;;;10.90;99.90;;;;;;6282978;22;20216;-87
2022/09/26 03:56:13;;;;;;;32.17;27.70;;;10.90;99.90;;;;;;6296938;22;20170;-88
2022/09/26 03:58:41;;;;;;;32.90;27.65;;;10.80;99.90;;;;;;6299593;22;20173;-87
2022/09/26 04:01:11;;;;;;;37.53;30.77;;;10.90;99.90;;;;;;6285800;22;20219;-89
2022/09/26 04:03:41;;;;;;;37.55;28.48;;;10.90;99.90;;;;;;6283748;22;20215;-89
2022/09/26 04:06:18;;;;;;;30.65;27.42;;;10.90;99.90;;;;;;6286121;22;20209;-88
2022/09/26 04:08:49;;;;;;;38.03;29.33;;;10.80;99.90;;;;;;6290330;22;20331;-88
2022/09/26 04:11:21;;;;;;;34.75;27.33;;;10.80;99.90;;;;;;6292120;22;20204;-88
2022/09/26 04:13:50;;;;;;;40.67;29.95;;;10.90;99.90;;;;;;6300613;22;20181;-89
2022/09/26 04:16:21;;;;;;;36.10;28.40;;;10.80;99.90;;;;;;6294042;22;20212;-89
2022/09/26 04:18:56;;;;;;;31.65;25.77;;;10.80;99.90;;;;;;6319285;22;20742;-88
2022/09/26 04:21:25;;;;;;;33.63;29.75;;;10.80;99.90;;;;;;6257729;22;20180;-87
2022/09/26 04:23:53;;;;;;;32.95;29.45;;;10.70;99.90;;;;;;6283535;22;20188;-89
2022/09/26 04:26:22;;;;;;;31.85;26.00;;;10.80;99.90;;;;;;6283624;22;20184;-89
2022/09/26 04:28:53;;;;;;;32.83;26.63;;;10.80;99.90;;;;;;6282876;22;20217;-90
2022/09/26 04:31:22;;;;;;;32.35;28.58;;;10.70;99.90;;;;;;6307061;22;20525;-87
2022/09/26 04:33:49;;;;;;;33.58;29.70;;;10.80;99.90;;;;;;6281361;22;20228;-87
2022/09/26 04:36:17;;;;;;;33.95;28.52;;;11.00;99.90;;;;;;6281948;22;20177;-87
2022/09/26 04:38:44;;;;;;;32.75;26.70;;;11.10;99.90;;;;;;6281376;22;20181;-88
2022/09/26 04:41:20;;;;;;;32.40;27.80;;;11.10;99.90;;;;;;6284588;22;20473;-88
2022/09/26 04:43:48;;;;;;;32.13;26.20;;;11.20;99.90;;;;;;6284472;22;20226;-89
2022/09/26 04:46:21;;;;;;;32.25;27.50;;;11.20;99.90;;;;;;6284310;22;20219;-89
2022/09/26 04:48:57;;;;;;;32.72;26.40;;;11.30;99.90;;;;;;6287136;22;20163;-89
2022/09/26 04:51:25;;;;;;;32.03;26.92;;;11.40;99.90;;;;;;6294913;22;20226;-90
2022/09/26 04:53:52;;;;;;;34.95;28.38;;;11.40;99.90;;;;;;6292470;22;20264;-88
2022/09/26 04:56:58;;;;;;;38.55;30.50;;;11.50;99.90;;;;;;6302058;22;20165;-87
2022/09/26 04:59:26;;;;;;;30.13;26.88;;;11.40;99.90;;;;;;6242248;22;20268;-89
2022/09/26 05:01:55;;;;;;;32.47;27.63;;;11.40;99.90;;;;;;6136172;22;20169;-90
2022/09/26 05:04:22;;;;;;;30.20;26.83;;;11.60;99.90;;;;;;6130427;23;20368;-90
2022/09/26 05:06:56;;;;;;;32.83;25.80;;;11.80;99.90;;;;;;6137784;22;20169;-91
2022/09/26 05:09:26;;;;;;;32.85;28.02;;;11.90;99.90;;;;;;6135203;23;20169;-90
2022/09/26 05:12:01;;;;;;;36.05;25.77;;;12.00;99.90;;;;;;6134724;23;20170;-91
2022/09/26 05:14:29;;;;;;;35.30;25.33;;;12.10;99.90;;;;;;6131335;23;20423;-90
2022/09/26 05:16:57;;;;;;;76.88;49.33;;;12.10;99.90;;;;;;6130138;23;20190;-90
2022/09/26 05:19:26;;;;;;;31.35;24.25;;;12.30;99.90;;;;;;6128630;23;20197;-90
2022/09/26 05:21:55;;;;;;;36.20;28.60;;;12.30;99.90;;;;;;6108229;23;20473;-88
2022/09/26 05:27:22;;;;;;;33.42;26.17;;;12.40;99.90;;;;;;6130172;23;20481;-88
2022/09/26 05:29:54;;;;;;;26.65;20.85;;;12.50;99.90;;;;;;6129838;23;20181;-89
2022/09/26 05:32:27;;;;;;;28.63;22.73;;;12.70;99.90;;;;;;6130539;23;20249;-88
2022/09/26 05:34:55;;;;;;;26.20;22.58;;;12.80;99.90;;;;;;6112398;23;20208;-89
2022/09/26 05:37:21;;;;;;;30.63;23.80;;;12.90;99.90;;;;;;6135578;23;20185;-90
2022/09/26 05:42:40;;;;;;;31.35;24.27;;;12.90;99.90;;;;;;6129838;23;20178;-89
2022/09/26 05:45:14;;;;;;;38.92;27.15;;;13.00;99.90;;;;;;6130174;23;20380;-89
2022/09/26 05:47:41;;;;;;;30.60;22.73;;;13.00;99.90;;;;;;6131016;23;20197;-90
2022/09/26 05:50:11;;;;;;;30.63;22.17;;;13.00;99.90;;;;;;6132580;23;20223;-89
2022/09/26 05:52:39;;;;;;;31.70;21.20;;;13.00;99.90;;;;;;6132791;23;20174;-90
2022/09/26 05:55:07;;;;;;;26.40;21.13;;;13.20;99.90;;;;;;6131894;23;20205;-90
2022/09/26 05:57:39;;;;;;;29.75;21.17;;;13.30;99.90;;;;;;6137072;22;20174;-89
2022/09/26 06:00:07;;;;;;;22.92;18.55;;;13.30;99.90;;;;;;6135868;23;20181;-90
2022/09/26 06:02:34;;;;;;;29.38;22.00;;;13.30;99.90;;;;;;6142933;22;20174;-91
2022/09/26 06:05:02;;;;;;;25.00;20.52;;;13.30;99.90;;;;;;6133743;23;20178;-89
2022/09/26 06:18:12;;;;;;;23.50;18.08;;;13.50;99.90;;;;;;6155602;22;20167;-87
2022/09/26 06:39:46;;;;;;;19.65;16.63;;;13.70;99.90;;;;;;6276978;22;20232;-87
2022/09/26 06:42:24;;;;;;;24.33;17.38;;;13.70;99.90;;;;;;6293330;22;20170;-87
2022/09/26 06:44:52;;;;;;;23.23;18.90;;;13.40;99.90;;;;;;6234175;22;20193;-86
2022/09/26 06:47:19;;;;;;;24.58;18.17;;;13.50;99.90;;;;;;6127910;22;20181;-86
2022/09/26 06:49:47;;;;;;;21.27;18.10;;;13.40;99.90;;;;;;6128353;22;20243;-85
2022/09/26 06:52:15;;;;;;;24.85;18.30;;;13.50;99.90;;;;;;6129159;22;20360;-87
2022/09/26 06:54:41;;;;;;;23.95;19.23;;;13.40;99.90;;;;;;6130957;23;20197;-86
2022/09/26 06:57:10;;;;;;;22.58;18.38;;;13.50;99.90;;;;;;6131399;22;20244;-87
2022/09/26 06:59:40;;;;;;;28.95;20.25;;;13.60;99.90;;;;;;6228535;23;20461;-85
2022/09/26 07:02:08;;;;;;;33.03;17.40;;;13.60;99.90;;;;;;6129689;22;20192;-83
2022/09/26 07:04:35;;;;;;;27.42;19.50;;;13.70;99.90;;;;;;6128715;22;20595;-85
2022/09/26 07:07:02;;;;;;;25.77;20.15;;;13.80;99.90;;;;;;6126960;23;20186;-83
2022/09/26 07:09:30;;;;;;;27.23;18.75;;;13.70;99.90;;;;;;6127677;22;20190;-85
2022/09/26 07:11:58;;;;;;;21.83;18.85;;;13.80;99.90;;;;;;6129755;23;20208;-83
2022/09/26 07:14:42;;;;;;;27.17;20.23;;;13.90;99.90;;;;;;6227755;22;20379;-85
2022/09/26 07:17:15;;;;;;;24.42;21.17;;;13.70;99.90;;;;;;6245531;22;20168;-83
2022/09/26 07:19:43;;;;;;;24.15;20.90;;;13.60;99.90;;;;;;6244431;22;20165;-85
2022/09/26 07:22:10;;;;;;;26.48;20.40;;;13.70;99.90;;;;;;6139571;22;20237;-84
2022/09/26 07:24:38;;;;;;;26.92;20.67;;;13.60;99.90;;;;;;6128186;22;20208;-85
2022/09/26 07:27:05;;;;;;;26.30;20.15;;;13.80;99.90;;;;;;6128172;22;20185;-88
2022/09/26 07:29:31;;;;;;;20.50;17.63;;;13.80;99.90;;;;;;6139725;22;20186;-83
2022/09/26 07:31:58;;;;;;;24.83;19.75;;;13.60;99.90;;;;;;6142970;22;20193;-83
2022/09/26 07:34:25;;;;;;;23.08;18.10;;;13.40;99.90;;;;;;6244842;22;20230;-84
2022/09/26 07:36:53;;;;;;;26.98;20.15;;;13.40;99.90;;;;;;6275446;22;20229;-86
2022/09/26 07:39:20;;;;;;;22.02;17.80;;;13.30;99.90;;;;;;6260384;22;20212;-85
2022/09/26 08:06:01;;;;;;;20.80;18.58;;;12.90;99.90;;;;;;6264009;22;20186;-83
2022/09/26 08:08:29;;;;;;;22.60;19.35;;;13.10;99.90;;;;;;6269159;23;20573;-84
2022/09/26 08:24:26;;;;;;;22.10;19.42;;;15.00;99.90;;;;;;6221478;22;20228;-84
2022/09/26 08:29:31;;;;;;;21.17;17.05;;;15.50;99.90;;;;;;6235699;22;20203;-83
2022/09/26 09:01:45;;;;;;;21.77;16.60;;;16.60;99.90;;;;;;6259493;23;20429;-87
2022/09/26 09:04:23;;;;;;;16.73;14.80;;;16.70;99.90;;;;;;6246182;22;20474;-89
2022/09/26 09:07:04;;;;;;;16.33;14.60;;;16.60;99.90;;;;;;6251845;23;20408;-88
2022/09/26 09:09:32;;;;;;;23.20;14.93;;;16.70;99.90;;;;;;6258245;22;20452;-89
2022/09/26 09:12:13;;;;;;;19.90;17.10;;;16.50;99.90;;;;;;6258184;22;20408;-88
2022/09/26 09:14:47;;;;;;;21.43;17.00;;;16.70;99.90;;;;;;6253710;23;20604;-89
2022/09/26 09:18:03;;;;;;;17.40;15.50;;;17.00;99.90;;;;;;6254323;23;20651;-86
2022/09/26 09:20:42;;;;;;;20.73;15.03;;;17.10;99.90;;;;;;6211519;23;20412;-90
2022/09/26 09:23:45;;;;;;;19.33;15.40;;;17.30;99.90;;;;;;6253285;23;20467;-87
2022/09/26 09:26:32;;;;;;;16.93;14.23;;;17.40;99.90;;;;;;6253646;23;20372;-87
2022/09/26 09:29:40;;;;;;;19.70;15.10;;;17.80;99.90;;;;;;6254629;23;20427;-87
2022/09/26 09:32:13;;;;;;;19.00;15.77;;;18.20;99.90;;;;;;6254596;23;20477;-87
2022/09/26 09:34:42;;;;;;;15.30;13.27;;;18.80;99.90;;;;;;6229084;23;20440;-87
2022/09/26 09:37:16;;;;;;;14.60;13.20;;;18.90;99.90;;;;;;6252803;23;20411;-87
2022/09/26 09:39:46;;;;;;;15.33;13.77;;;19.30;99.90;;;;;;6256684;23;20392;-88
2022/09/26 09:42:34;;;;;;;15.37;13.60;;;19.80;99.90;;;;;;6254338;23;20712;-87
2022/09/26 09:45:28;;;;;;;15.73;14.17;;;19.60;99.90;;;;;;6227722;23;20648;-87
2022/09/26 09:47:56;;;;;;;16.00;14.30;;;19.40;99.90;;;;;;6253932;23;20444;-88
2022/09/26 09:50:48;;;;;;;15.00;13.50;;;18.60;99.90;;;;;;6254400;23;20359;-86
2022/09/26 09:53:39;;;;;;;16.43;14.57;;;18.10;99.90;;;;;;6254277;23;20407;-87
2022/09/26 09:56:38;;;;;;;18.03;14.67;;;17.70;99.90;;;;;;6255774;23;20407;-86
2022/09/26 09:59:23;;;;;;;20.60;15.13;;;17.90;99.90;;;;;;6256243;23;20372;-86
2022/09/26 10:02:15;;;;;;;19.00;17.17;;;17.90;99.90;;;;;;6255786;23;20376;-86
2022/09/26 10:04:51;;;;;;;19.13;16.43;;;17.80;99.90;;;;;;6255404;23;20392;-86
2022/09/26 10:07:18;;;;;;;17.23;15.53;;;17.80;99.90;;;;;;6257097;23;20627;-85
2022/09/26 10:09:50;;;;;;;18.53;16.40;;;17.80;99.90;;;;;;6255364;22;20440;-89
2022/09/26 10:12:21;;;;;;;16.27;14.53;;;17.70;99.90;;;;;;6255567;23;20612;-85
2022/09/26 10:14:58;;;;;;;17.73;15.83;;;17.50;99.90;;;;;;6253609;23;20407;-83
2022/09/26 10:17:26;;;;;;;20.23;16.90;;;17.50;99.90;;;;;;6254502;23;20575;-86
2022/09/26 10:19:53;;;;;;;19.97;17.87;;;17.30;99.90;;;;;;6254457;23;20455;-87
2022/09/26 10:22:36;;;;;;;20.27;17.93;;;17.20;99.90;;;;;;6254853;23;20392;-88
2022/09/26 10:25:25;;;;;;;20.60;18.63;;;16.90;99.90;;;;;;6228931;23;20369;-85
2022/09/26 10:27:54;;;;;;;20.53;18.07;;;16.90;99.90;;;;;;6228594;23;20395;-86
2022/09/26 10:30:24;;;;;;;18.17;15.93;;;16.80;99.90;;;;;;6266107;23;20379;-85
2022/09/26 10:32:55;;;;;;;18.90;15.97;;;16.30;99.90;;;;;;6238541;23;20427;-87
2022/09/26 10:35:43;;;;;;;22.40;16.47;;;16.20;99.90;;;;;;6243714;23;20416;-87
2022/09/26 10:38:21;;;;;;;18.73;16.60;;;16.00;99.90;;;;;;6241544;22;20376;-85
2022/09/26 10:40:59;;;;;;;22.20;16.70;;;15.60;99.90;;;;;;6268454;22;20432;-87
2022/09/26 10:43:29;;;;;;;18.97;16.80;;;15.30;99.90;;;;;;6267299;22;20382;-87
2022/09/26 10:46:12;;;;;;;20.10;16.27;;;15.10;99.90;;;;;;6264690;22;20356;-85
2022/09/26 10:48:46;;;;;;;21.40;18.70;;;14.90;99.90;;;;;;6260983;23;20382;-87
2022/09/26 10:51:22;;;;;;;22.83;17.40;;;14.60;99.90;;;;;;6255248;23;20443;-85
2022/09/26 10:53:53;;;;;;;22.10;17.33;;;14.40;99.90;;;;;;6255727;22;20433;-87
2022/09/26 10:56:25;;;;;;;24.98;17.23;;;14.20;99.90;;;;;;6258736;22;20217;-83
2022/09/26 10:58:58;;;;;;;16.35;13.40;;;14.20;99.90;;;;;;6258277;22;20168;-86
2022/09/26 11:01:29;;;;;;;20.00;13.52;;;14.00;99.90;;;;;;6256342;22;20227;-84
2022/09/26 11:04:13;;;;;;;17.30;13.18;;;14.10;99.90;;;;;;6260186;23;20164;-87
2022/09/26 11:06:44;;;;;;;16.92;14.07;;;14.00;99.90;;;;;;6269533;22;20176;-81
2022/09/26 11:09:19;;;;;;;19.20;12.30;;;14.10;99.90;;;;;;6268604;22;20165;-86
2022/09/26 11:11:49;;;;;;;16.58;12.43;;;14.00;99.90;;;;;;6268397;22;20163;-84
2022/09/26 11:14:23;;;;;;;15.68;12.93;;;14.00;99.90;;;;;;6268078;22;20164;-87
2022/09/26 11:16:55;;;;;;;16.38;12.95;;;14.30;99.90;;;;;;6255357;23;20182;-88
2022/09/26 11:19:38;;;;;;;17.73;13.05;;;14.20;99.90;;;;;;6257259;23;20180;-86
2022/09/26 11:22:16;;;;;;;15.70;13.02;;;14.10;99.90;;;;;;6266910;22;20181;-85
2022/09/26 11:25:05;;;;;;;22.00;13.70;;;14.10;99.90;;;;;;6268480;22;20157;-85
2022/09/26 11:27:47;;;;;;;18.90;13.02;;;13.80;99.90;;;;;;6261604;22;20185;-88
2022/09/26 11:30:19;;;;;;;22.92;14.27;;;14.00;99.90;;;;;;6257283;23;20220;-87
2022/09/26 11:32:54;;;;;;;23.25;15.60;;;14.20;99.90;;;;;;6254385;23;20161;-87
2022/09/26 11:35:42;;;;;;;18.25;13.90;;;14.30;99.90;;;;;;6252801;22;20205;-87
2022/09/26 11:38:39;;;;;;;24.15;16.38;;;14.40;99.90;;;;;;6253928;23;20163;-86
2022/09/26 11:41:37;;;;;;;23.27;15.82;;;14.40;99.90;;;;;;6280025;22;20235;-85
2022/09/26 11:44:30;;;;;;;20.48;14.02;;;14.60;99.90;;;;;;6286378;22;20170;-87
2022/09/26 11:47:25;;;;;;;26.48;16.80;;;14.60;99.90;;;;;;6286359;22;20212;-87
2022/09/26 11:50:16;;;;;;;24.70;17.30;;;14.80;99.90;;;;;;6287247;22;20179;-87
2022/09/26 11:53:01;;;;;;;21.90;14.90;;;14.80;99.90;;;;;;6311349;22;20207;-86
2022/09/26 11:55:43;;;;;;;19.90;15.70;;;15.10;99.90;;;;;;6286872;22;20206;-86
2022/09/26 11:58:13;;;;;;;19.50;14.63;;;15.00;99.90;;;;;;6286568;22;20403;-86
2022/09/26 12:00:58;;;;;;;20.52;13.18;;;14.80;99.90;;;;;;6286374;22;20180;-88
2022/09/26 12:04:00;;;;;;;17.73;14.20;;;14.80;99.90;;;;;;6285747;22;20160;-87
2022/09/26 12:06:45;;;;;;;23.77;12.05;;;14.80;99.90;;;;;;6219580;22;20190;-87
2022/09/26 12:09:51;;;;;;;15.57;13.07;;;15.20;99.90;;;;;;6284209;22;20171;-86
2022/09/26 12:12:42;;;;;;;19.65;13.48;;;15.20;99.90;;;;;;6285284;22;20221;-87
2022/09/26 12:15:26;;;;;;;16.65;11.25;;;15.20;99.90;;;;;;6284427;22;20192;-87
2022/09/26 12:18:15;;;;;;;13.23;11.43;;;15.50;99.90;;;;;;6298276;22;20188;-89
2022/09/26 12:21:17;;;;;;;16.25;12.02;;;15.60;99.90;;;;;;6284075;22;20203;-86
2022/09/26 12:24:03;;;;;;;14.70;12.20;;;15.50;99.90;;;;;;6281977;22;20205;-88
2022/09/26 12:26:43;;;;;;;14.37;10.57;;;15.70;99.90;;;;;;6280237;22;20430;-87
2022/09/26 12:29:22;;;;;;;14.13;12.03;;;16.20;99.90;;;;;;6307971;22;20401;-87
2022/09/26 12:32:15;;;;;;;18.50;11.53;;;16.30;99.90;;;;;;6288581;22;20394;-86
2022/09/26 12:35:07;;;;;;;13.10;9.67;;;16.40;99.90;;;;;;6287498;22;20380;-88
2022/09/26 12:37:48;;;;;;;11.87;10.37;;;16.50;99.90;;;;;;6286793;22;20397;-86
2022/09/26 12:40:40;;;;;;;11.63;10.47;;;16.80;99.90;;;;;;6310562;22;20415;-87
2022/09/26 12:43:34;;;;;;;15.97;11.83;;;16.90;99.90;;;;;;6283926;22;20456;-86
2022/09/26 12:46:21;;;;;;;11.40;10.00;;;17.00;99.90;;;;;;6283660;22;20694;-87
2022/09/26 12:49:12;;;;;;;12.30;10.73;;;16.90;99.90;;;;;;6282026;22;20376;-87
2022/09/26 12:51:43;;;;;;;12.17;10.87;;;16.60;99.90;;;;;;6308042;22;20403;-87
2022/09/26 12:54:28;;;;;;;12.13;10.40;;;16.40;99.90;;;;;;6286785;22;20599;-86
2022/09/26 12:57:31;;;;;;;15.03;10.07;;;16.20;99.90;;;;;;6285871;22;20864;-87
2022/09/26 13:00:20;;;;;;;11.10;9.13;;;16.20;99.90;;;;;;6282076;22;20406;-85
2022/09/26 13:03:00;;;;;;;9.47;8.00;;;16.10;99.90;;;;;;6282994;22;20416;-87
2022/09/26 13:05:36;;;;;;;13.93;10.70;;;16.20;99.90;;;;;;6283362;22;20380;-85
2022/09/26 13:08:17;;;;;;;9.23;8.37;;;16.40;99.90;;;;;;6282127;22;20376;-86
2022/09/26 13:11:04;;;;;;;12.50;9.10;;;17.10;99.90;;;;;;6283846;22;20599;-86
2022/09/26 13:14:06;;;;;;;14.67;9.23;;;17.20;99.90;;;;;;6283747;22;20398;-87
2022/09/26 13:16:56;;;;;;;11.40;9.37;;;17.20;99.90;;;;;;6284594;22;20620;-87
2022/09/26 13:19:28;;;;;;;11.67;9.30;;;17.70;99.90;;;;;;6284648;22;20472;-87
2022/09/26 13:22:00;;;;;;;10.47;7.57;;;18.10;99.90;;;;;;6287842;22;20603;-87
2022/09/26 13:24:45;;;;;;;10.13;9.13;;;18.40;99.90;;;;;;6286873;22;20372;-87
2022/09/26 13:27:19;;;;;;;10.40;8.10;;;18.40;99.90;;;;;;6286648;22;20444;-86
2022/09/26 13:29:54;;;;;;;8.73;7.67;;;17.90;99.90;;;;;;6285529;22;20354;-87
2022/09/26 13:32:35;;;;;;;9.90;7.07;;;17.90;99.90;;;;;;6287571;22;20453;-87
2022/09/26 13:35:30;;;;;;;12.10;8.07;;;17.90;99.90;;;;;;6287224;22;20375;-87
2022/09/26 13:38:46;;;;;;;9.30;7.90;;;18.00;99.90;;;;;;6284690;22;20421;-86
2022/09/26 13:41:49;;;;;;;8.10;6.27;;;18.10;99.90;;;;;;6199114;23;20429;-87
2022/09/26 13:44:31;;;;;;;9.77;8.23;;;18.30;99.90;;;;;;6168883;23;20738;-87
2022/09/26 13:47:04;;;;;;;10.17;6.87;;;18.20;99.90;;;;;;6270372;22;20391;-88
2022/09/26 13:49:53;;;;;;;7.93;6.30;;;18.40;99.90;;;;;;6288926;22;20376;-87
2022/09/26 13:52:33;;;;;;;7.97;6.70;;;18.20;99.90;;;;;;6291554;22;20403;-87
2022/09/26 13:55:09;;;;;;;8.47;7.37;;;18.10;99.90;;;;;;6294604;22;20489;-87
2022/09/26 13:58:05;;;;;;;8.97;7.00;;;18.20;99.90;;;;;;6300107;22;20383;-84
2022/09/26 14:00:47;;;;;;;8.17;6.73;;;18.30;99.90;;;;;;6289089;22;20391;-86
2022/09/26 14:03:18;;;;;;;9.63;5.83;;;18.30;99.90;;;;;;6299309;22;20442;-87
2022/09/26 14:06:06;;;;;;;5.87;5.00;;;18.10;99.90;;;;;;6298798;22;20395;-85
2022/09/26 14:11:29;;;;;;;6.67;5.00;;;18.50;99.90;;;;;;6284816;22;20440;-85
2022/09/26 14:14:15;;;;;;;4.80;3.97;;;18.40;99.90;;;;;;6284220;22;20433;-85
2022/09/26 14:16:43;;;;;;;5.97;4.83;;;17.80;99.90;;;;;;6284052;22;20435;-86
2022/09/26 14:19:14;;;;;;;7.47;4.70;;;17.70;99.90;;;;;;6284430;22;20456;-86
2022/09/26 14:22:04;;;;;;;4.73;4.37;;;17.40;99.90;;;;;;6285878;22;20398;-87
2022/09/26 14:24:35;;;;;;;4.93;4.47;;;17.50;99.90;;;;;;6285577;22;20377;-86
2022/09/26 14:27:25;;;;;;;5.17;4.70;;;18.00;99.90;;;;;;6284188;22;20445;-87
2022/09/26 14:30:12;;;;;;;3.47;3.17;;;18.00;99.90;;;;;;6284964;22;20407;-85
2022/09/26 14:32:43;;;;;;;3.70;3.40;;;18.30;99.90;;;;;;6284252;22;20784;-87
2022/09/26 14:35:25;;;;;;;4.60;4.20;;;18.00;99.90;;;;;;6286168;22;20403;-87
2022/09/26 14:38:01;;;;;;;6.20;4.83;;;17.70;99.90;;;;;;6285833;22;20379;-86
2022/09/26 14:40:35;;;;;;;6.60;4.43;;;17.60;99.90;;;;;;6286639;22;20391;-87
2022/09/26 14:43:12;;;;;;;5.80;5.30;;;17.40;99.90;;;;;;6287397;22;20400;-87
2022/09/26 14:45:52;;;;;;;4.40;4.00;;;17.30;99.90;;;;;;6290310;22;20742;-87
2022/09/26 14:48:40;;;;;;;3.47;3.17;;;17.00;99.90;;;;;;6299965;22;20399;-88
2022/09/26 14:51:11;;;;;;;3.63;3.33;;;16.70;99.90;;;;;;6299051;22;20410;-87
2022/09/26 14:53:46;;;;;;;4.10;3.80;;;16.70;99.90;;;;;;6289955;22;20465;-86
2022/09/26 14:56:15;;;;;;;5.10;4.60;;;16.70;99.90;;;;;;6297809;22;20465;-86
2022/09/26 14:58:50;;;;;;;5.50;4.50;;;16.80;99.90;;;;;;6298614;22;20398;-87
2022/09/26 15:01:30;;;;;;;4.33;3.90;;;16.80;99.90;;;;;;6300031;22;20406;-87
2022/09/26 15:04:22;;;;;;;4.40;3.07;;;16.40;99.90;;;;;;6296887;22;20482;-88
2022/09/26 15:07:00;;;;;;;3.13;2.83;;;16.00;99.90;;;;;;6293508;22;20381;-87
2022/09/26 15:09:55;;;;;;;4.40;3.43;;;16.00;99.90;;;;;;6293113;22;20426;-88
2022/09/26 15:12:40;;;;;;;6.00;4.43;;;16.10;99.90;;;;;;6297423;22;20442;-88
2022/09/26 15:15:16;;;;;;;5.73;4.13;;;16.00;99.90;;;;;;6299982;22;20666;-87